createdAt,value
2016-04-16T00:00:13.993Z,47.55
2016-04-16T00:01:14.261Z,47.75
2016-04-16T00:02:13.999Z,47.65
2016-04-16T00:03:14.017Z,47.36
2016-04-16T00:04:14.114Z,47.65
2016-04-16T00:05:14.038Z,47.75
2016-04-16T00:06:14.041Z,47.75
2016-04-16T00:07:14.043Z,47.65
2016-04-16T00:08:14.249Z,47.55
2016-04-16T00:09:14.205Z,47.55
2016-04-16T00:10:14.067Z,47.94
2016-04-16T00:11:14.070Z,47.45
2016-04-16T00:12:14.228Z,47.94
2016-04-16T00:13:14.090Z,47.27
2016-04-16T00:14:14.093Z,47.27
2016-04-16T00:15:14.112Z,47.94
2016-04-16T00:16:14.240Z,47.55
2016-04-16T00:17:14.118Z,47.27
2016-04-16T00:18:14.323Z,47.36
2016-04-16T00:19:14.123Z,47.85
2016-04-16T00:20:14.125Z,47.65
2016-04-16T00:21:14.143Z,47.55
2016-04-16T00:22:14.131Z,47.65
2016-04-16T00:23:14.149Z,47.65
2016-04-16T00:24:14.262Z,47.27
2016-04-16T00:25:14.170Z,47.27
2016-04-16T00:26:14.267Z,47.85
2016-04-16T00:27:14.191Z,47.65
2016-04-16T00:28:14.334Z,47.45
2016-04-16T00:29:14.337Z,47.85
2016-04-16T00:30:14.199Z,47.27
2016-04-16T00:31:14.358Z,47.45
2016-04-16T00:32:14.204Z,47.45
2016-04-16T00:33:14.222Z,47.27
2016-04-16T00:34:14.272Z,47.85
2016-04-16T00:35:14.228Z,47.65
2016-04-16T00:36:14.231Z,47.45
2016-04-16T00:37:14.249Z,47.45
2016-04-16T00:38:14.252Z,47.55
2016-04-16T00:39:14.254Z,47.94
2016-04-16T00:40:14.507Z,47.45
2016-04-16T00:41:14.260Z,47.85
2016-04-16T00:42:14.293Z,47.45
2016-04-16T00:43:14.281Z,47.85
2016-04-16T00:44:14.283Z,47.75
2016-04-16T00:45:14.442Z,47.55
2016-04-16T00:46:14.304Z,47.85
2016-04-16T00:47:14.307Z,47.45
2016-04-16T00:48:14.420Z,47.55
2016-04-16T00:49:14.329Z,47.65
2016-04-16T00:50:14.378Z,47.65
2016-04-16T00:51:14.334Z,47.75
2016-04-16T00:52:14.336Z,47.75
2016-04-16T00:53:14.355Z,47.75
2016-04-16T00:54:14.357Z,47.75
2016-04-16T00:55:14.360Z,47.75
2016-04-16T00:56:14.379Z,47.65
2016-04-16T00:57:14.381Z,47.55
2016-04-16T00:58:14.384Z,47.75
2016-04-16T00:59:14.386Z,47.65
2016-04-16T01:00:14.405Z,47.65
2016-04-16T01:01:14.500Z,47.75
2016-04-16T01:02:14.410Z,47.75
2016-04-16T01:03:14.428Z,47.65
2016-04-16T01:04:14.431Z,47.65
2016-04-16T01:05:14.559Z,47.55
2016-04-16T01:06:14.452Z,47.94
2016-04-16T01:07:14.471Z,47.85
2016-04-16T01:08:14.457Z,47.55
2016-04-16T01:09:14.460Z,47.75
2016-04-16T01:10:14.479Z,47.65
2016-04-16T01:11:14.481Z,47.75
2016-04-16T01:12:14.484Z,47.36
2016-04-16T01:13:14.501Z,47.75
2016-04-16T01:14:14.505Z,47.75
2016-04-16T01:15:14.523Z,47.55
2016-04-16T01:16:14.526Z,47.65
2016-04-16T01:17:14.528Z,47.65
2016-04-16T01:18:14.531Z,47.55
2016-04-16T01:19:14.549Z,47.65
2016-04-16T01:20:14.567Z,47.75
2016-04-16T01:21:14.555Z,47.65
2016-04-16T01:22:14.573Z,47.75
2016-04-16T01:23:14.576Z,47.65
2016-04-16T01:24:14.578Z,47.65
2016-04-16T01:25:14.597Z,47.75
2016-04-16T01:26:14.599Z,47.55
2016-04-16T01:27:14.617Z,47.75
2016-04-16T01:28:14.636Z,47.75
2016-04-16T01:29:14.639Z,47.75
2016-04-16T01:30:14.641Z,47.65
2016-04-16T01:31:14.628Z,47.65
2016-04-16T01:32:14.647Z,47.75
2016-04-16T01:33:14.649Z,47.65
2016-04-16T01:34:14.652Z,47.36
2016-04-16T01:35:14.702Z,47.36
2016-04-16T01:36:14.673Z,47.65
2016-04-16T01:37:14.676Z,47.75
2016-04-16T01:38:14.694Z,47.65
2016-04-16T01:39:14.712Z,47.65
2016-04-16T01:40:14.699Z,47.36
2016-04-16T01:41:14.702Z,47.75
2016-04-16T01:42:14.720Z,47.75
2016-04-16T01:43:14.738Z,47.36
2016-04-16T01:44:14.726Z,47.36
2016-04-16T01:45:14.744Z,47.75
2016-04-16T01:46:14.747Z,47.75
2016-04-16T01:47:14.766Z,47.55
2016-04-16T01:48:14.768Z,47.55
2016-04-16T01:49:14.771Z,47.75
2016-04-16T01:50:14.789Z,47.75
2016-04-16T01:51:14.807Z,47.75
2016-04-16T01:52:14.794Z,47.55
2016-04-16T01:53:14.797Z,47.65
2016-04-16T01:54:14.815Z,47.75
2016-04-16T01:55:14.818Z,47.65
2016-04-16T01:56:14.821Z,47.65
2016-04-16T01:57:14.839Z,47.65
2016-04-16T01:58:14.842Z,47.75
2016-04-16T01:59:14.844Z,47.65
2016-04-16T02:00:14.863Z,47.65
2016-04-16T02:01:14.880Z,47.75
2016-04-16T02:02:14.868Z,47.75
2016-04-16T02:03:14.875Z,47.36
2016-04-16T02:04:14.908Z,47.36
2016-04-16T02:05:14.973Z,47.36
2016-04-16T02:06:14.914Z,47.65
2016-04-16T02:07:14.917Z,47.36
2016-04-16T02:08:14.919Z,47.65
2016-04-16T02:09:14.922Z,47.75
2016-04-16T02:10:14.940Z,47.36
2016-04-16T02:11:14.943Z,47.65
2016-04-16T02:12:14.962Z,47.75
2016-04-16T02:13:14.964Z,47.75
2016-04-16T02:14:14.967Z,47.65
2016-04-16T02:15:14.985Z,47.55
2016-04-16T02:16:14.988Z,47.75
2016-04-16T02:17:14.990Z,47.75
2016-04-16T02:18:15.008Z,47.65
2016-04-16T02:19:14.996Z,47.85
2016-04-16T02:20:15.046Z,47.65
2016-04-16T02:21:15.032Z,47.65
2016-04-16T02:22:15.022Z,47.75
2016-04-16T02:23:15.040Z,47.36
2016-04-16T02:24:15.043Z,47.75
2016-04-16T02:25:15.045Z,47.45
2016-04-16T02:26:15.063Z,47.63
2016-04-16T02:27:15.066Z,47.65
2016-04-16T02:28:15.084Z,47.36
2016-04-16T02:29:15.088Z,47.65
2016-04-16T02:30:15.090Z,47.85
2016-04-16T02:31:15.093Z,47.75
2016-04-16T02:32:15.111Z,47.75
2016-04-16T02:33:15.114Z,47.36
2016-04-16T02:34:15.116Z,47.55
2016-04-16T02:35:15.134Z,47.45
2016-04-16T02:36:15.137Z,47.55
2016-04-16T02:37:15.156Z,47.36
2016-04-16T02:38:15.143Z,47.65
2016-04-16T02:39:15.161Z,47.63
2016-04-16T02:40:15.164Z,47.65
2016-04-16T02:41:15.166Z,47.45
2016-04-16T02:42:15.185Z,47.72
2016-04-16T02:43:15.187Z,47.75
2016-04-16T02:44:15.231Z,47.63
2016-04-16T02:45:15.277Z,47.55
2016-04-16T02:46:15.337Z,47.45
2016-04-16T02:47:15.399Z,47.36
2016-04-16T02:48:15.444Z,47.94
2016-04-16T02:49:15.463Z,47.45
2016-04-16T02:50:15.481Z,47.63
2016-04-16T02:51:15.514Z,47.65
2016-04-16T02:52:15.532Z,47.44
2016-04-16T02:53:15.551Z,47.75
2016-04-16T02:54:15.559Z,47.75
2016-04-16T02:55:15.583Z,47.45
2016-04-16T02:56:15.608Z,47.53
2016-04-16T02:57:15.600Z,47.55
2016-04-16T02:58:15.624Z,47.44
2016-04-16T02:59:15.629Z,47.75
2016-04-16T03:00:15.665Z,47.92
2016-04-16T03:01:15.653Z,47.94
2016-04-16T03:02:15.659Z,47.55
2016-04-16T03:03:15.679Z,47.53
2016-04-16T03:04:15.682Z,47.44
2016-04-16T03:05:15.686Z,47.55
2016-04-16T03:06:15.689Z,47.94
2016-04-16T03:07:15.709Z,47.45
2016-04-16T03:08:15.712Z,47.55
2016-04-16T03:09:15.715Z,47.24
2016-04-16T03:10:15.718Z,47.75
2016-04-16T03:11:15.753Z,47.45
2016-04-16T03:12:15.740Z,47.55
2016-04-16T03:13:15.759Z,47.45
2016-04-16T03:14:15.761Z,47.45
2016-04-16T03:15:15.779Z,47.55
2016-04-16T03:16:15.767Z,47.45
2016-04-16T03:17:15.769Z,47.36
2016-04-16T03:18:15.787Z,47.55
2016-04-16T03:19:15.789Z,47.44
2016-04-16T03:20:15.809Z,47.55
2016-04-16T03:21:15.811Z,47.65
2016-04-16T03:22:15.830Z,47.45
2016-04-16T03:23:15.832Z,47.36
2016-04-16T03:24:15.866Z,47.36
2016-04-16T03:25:15.868Z,47.45
2016-04-16T03:26:15.840Z,47.45
2016-04-16T03:27:15.858Z,47.36
2016-04-16T03:28:15.861Z,47.44
2016-04-16T03:29:15.880Z,47.55
2016-04-16T03:30:15.882Z,47.63
2016-04-16T03:31:15.885Z,47.63
2016-04-16T03:32:15.888Z,47.55
2016-04-16T03:33:15.906Z,47.63
2016-04-16T03:34:15.924Z,47.55
2016-04-16T03:35:15.926Z,47.82
2016-04-16T03:36:15.929Z,47.44
2016-04-16T03:37:15.932Z,47.55
2016-04-16T03:38:15.951Z,47.34
2016-04-16T03:39:15.953Z,47.63
2016-04-16T03:40:15.956Z,47.24
2016-04-16T03:41:15.959Z,47.55
2016-04-16T03:42:15.976Z,47.53
2016-04-16T03:43:15.980Z,47.63
2016-04-16T03:44:15.998Z,47.63
2016-04-16T03:45:16.001Z,47.53
2016-04-16T03:46:16.003Z,47.63
2016-04-16T03:47:16.006Z,47.34
2016-04-16T03:48:16.009Z,47.53
2016-04-16T03:49:16.027Z,47.44
2016-04-16T03:50:16.030Z,47.53
2016-04-16T03:51:16.047Z,47.72
2016-04-16T03:52:16.051Z,47.63
2016-04-16T03:53:16.053Z,47.53
2016-04-16T03:54:16.056Z,47.44
2016-04-16T03:55:16.058Z,47.34
2016-04-16T03:56:16.093Z,47.53
2016-04-16T03:57:16.096Z,47.44
2016-04-16T03:58:16.098Z,47.34
2016-04-16T03:59:16.101Z,47.44
2016-04-16T04:00:16.103Z,47.63
2016-04-16T04:01:16.121Z,47.72
2016-04-16T04:02:16.124Z,47.34
2016-04-16T04:03:16.127Z,47.63
2016-04-16T04:04:16.130Z,47.44
2016-04-16T04:05:16.148Z,47.72
2016-04-16T04:06:16.151Z,47.44
2016-04-16T04:07:16.153Z,47.72
2016-04-16T04:08:16.171Z,47.53
2016-04-16T04:09:16.174Z,47.63
2016-04-16T04:10:16.193Z,47.44
2016-04-16T04:11:16.180Z,47.44
2016-04-16T04:12:16.198Z,47.53
2016-04-16T04:13:16.201Z,47.44
2016-04-16T04:14:16.219Z,47.63
2016-04-16T04:15:16.222Z,47.53
2016-04-16T04:16:16.240Z,47.82
2016-04-16T04:17:16.242Z,47.53
2016-04-16T04:18:16.245Z,47.44
2016-04-16T04:19:16.248Z,47.53
2016-04-16T04:20:16.251Z,47.44
2016-04-16T04:21:16.270Z,47.63
2016-04-16T04:22:16.272Z,47.82
2016-04-16T04:23:16.275Z,47.34
2016-04-16T04:24:16.293Z,47.44
2016-04-16T04:25:16.311Z,47.53
2016-04-16T04:26:16.298Z,47.82
2016-04-16T04:27:16.301Z,47.63
2016-04-16T04:28:16.319Z,47.44
2016-04-16T04:29:16.322Z,47.53
2016-04-16T04:30:16.325Z,47.53
2016-04-16T04:31:16.343Z,47.44
2016-04-16T04:32:16.346Z,47.72
2016-04-16T04:33:16.348Z,47.44
2016-04-16T04:34:16.367Z,47.34
2016-04-16T04:35:16.369Z,47.53
2016-04-16T04:36:16.388Z,47.63
2016-04-16T04:37:16.391Z,47.53
2016-04-16T04:38:16.393Z,47.44
2016-04-16T04:39:16.396Z,47.63
2016-04-16T04:40:16.414Z,47.53
2016-04-16T04:41:16.417Z,47.34
2016-04-16T04:42:16.434Z,47.63
2016-04-16T04:43:16.438Z,47.72
2016-04-16T04:44:16.440Z,47.34
2016-04-16T04:45:16.443Z,47.63
2016-04-16T04:46:16.462Z,47.63
2016-04-16T04:47:16.464Z,47.72
2016-04-16T04:48:16.467Z,47.72
2016-04-16T04:49:16.485Z,47.63
2016-04-16T04:50:16.784Z,47.53
2016-04-16T04:51:16.491Z,47.72
2016-04-16T04:52:16.494Z,47.72
2016-04-16T04:53:16.512Z,47.63
2016-04-16T04:54:16.514Z,47.72
2016-04-16T04:55:16.517Z,47.63
2016-04-16T04:56:16.535Z,47.53
2016-04-16T04:57:16.538Z,47.63
2016-04-16T04:58:16.555Z,47.63
2016-04-16T04:59:16.559Z,47.53
2016-04-16T05:00:16.561Z,47.72
2016-04-16T05:01:16.564Z,47.82
2016-04-16T05:02:16.567Z,47.63
2016-04-16T05:03:16.585Z,47.53
2016-04-16T05:04:16.588Z,47.82
2016-04-16T05:05:16.949Z,47.53
2016-04-16T05:06:16.609Z,47.34
2016-04-16T05:07:16.612Z,47.82
2016-04-16T05:08:16.633Z,47.34
2016-04-16T05:09:16.635Z,47.14
2016-04-16T05:10:16.638Z,47.44
2016-04-16T05:11:16.640Z,47.53
2016-04-16T05:12:16.644Z,47.14
2016-04-16T05:13:16.646Z,47.24
2016-04-16T05:14:16.665Z,47.24
2016-04-16T05:15:16.824Z,47.53
2016-04-16T05:16:16.686Z,47.63
2016-04-16T05:17:16.875Z,47.72
2016-04-16T05:18:16.691Z,47.53
2016-04-16T05:19:16.694Z,47.63
2016-04-16T05:20:16.712Z,47.44
2016-04-16T05:21:16.715Z,47.44
2016-04-16T05:22:16.921Z,47.63
2016-04-16T05:23:16.736Z,47.34
2016-04-16T05:24:16.739Z,47.44
2016-04-16T05:25:16.992Z,47.44
2016-04-16T05:26:16.806Z,47.44
2016-04-16T05:27:16.761Z,47.63
2016-04-16T05:28:16.765Z,47.44
2016-04-16T05:29:16.783Z,47.63
2016-04-16T05:30:16.786Z,47.53
2016-04-16T05:31:16.852Z,47.72
2016-04-16T05:32:16.808Z,47.55
2016-04-16T05:33:16.872Z,47.53
2016-04-16T05:34:17.155Z,47.63
2016-04-16T05:35:16.830Z,47.55
2016-04-16T05:36:16.833Z,47.53
2016-04-16T05:37:16.852Z,47.63
2016-04-16T05:38:16.854Z,47.45
2016-04-16T05:39:16.841Z,47.45
2016-04-16T05:40:16.860Z,47.34
2016-04-16T05:41:16.863Z,47.45
2016-04-16T05:42:17.131Z,47.53
2016-04-16T05:43:16.884Z,47.34
2016-04-16T05:44:16.932Z,47.27
2016-04-16T05:45:17.248Z,47.24
2016-04-16T05:46:16.907Z,47.34
2016-04-16T05:47:17.222Z,47.45
2016-04-16T05:48:16.929Z,47.34
2016-04-16T05:49:17.025Z,47.36
2016-04-16T05:50:16.934Z,47.27
2016-04-16T05:51:16.936Z,47.45
2016-04-16T05:52:16.954Z,47.45
2016-04-16T05:53:16.957Z,47.44
2016-04-16T05:54:17.272Z,47.55
2016-04-16T05:55:17.166Z,47.34
2016-04-16T05:56:16.981Z,47.45
2016-04-16T05:57:16.983Z,47.36
2016-04-16T05:58:17.252Z,47.14
2016-04-16T05:59:17.097Z,47.36
2016-04-16T06:00:17.008Z,47.44
2016-04-16T06:01:17.322Z,47.44
2016-04-16T06:02:17.028Z,47.36
2016-04-16T06:03:17.030Z,47.36
2016-04-16T06:04:17.190Z,47.17
2016-04-16T06:05:17.068Z,47.36
2016-04-16T06:06:17.460Z,47.24
2016-04-16T06:07:17.057Z,47.27
2016-04-16T06:08:17.091Z,47.17
2016-04-16T06:09:17.078Z,47.45
2016-04-16T06:10:17.081Z,47.24
2016-04-16T06:11:17.193Z,47.34
2016-04-16T06:12:17.102Z,47.27
2016-04-16T06:13:17.121Z,47.27
2016-04-16T06:14:17.217Z,47.07
2016-04-16T06:15:17.235Z,47.07
2016-04-16T06:16:17.129Z,47.05
2016-04-16T06:17:17.444Z,46.97
2016-04-16T06:18:17.149Z,47.07
2016-04-16T06:19:17.152Z,47.17
2016-04-16T06:20:17.170Z,46.88
2016-04-16T06:21:17.189Z,46.95
2016-04-16T06:22:17.269Z,46.86
2016-04-16T06:23:17.210Z,46.78
2016-04-16T06:24:17.197Z,46.86
2016-04-16T06:25:17.497Z,46.97
2016-04-16T06:26:17.218Z,46.97
2016-04-16T06:27:17.236Z,47.17
2016-04-16T06:28:17.519Z,47.17
2016-04-16T06:29:17.539Z,47.17
2016-04-16T06:30:31.400Z,46.97
2016-04-16T06:31:17.247Z,46.88
2016-04-16T06:32:17.265Z,47.36
2016-04-16T06:33:17.252Z,46.88
2016-04-16T06:34:17.521Z,47.17
2016-04-16T06:35:17.271Z,47.17
2016-04-16T06:36:17.288Z,47.17
2016-04-16T06:37:17.388Z,47.27
2016-04-16T06:38:17.294Z,46.76
2016-04-16T06:39:17.297Z,46.97
2016-04-16T06:40:17.299Z,46.88
2016-04-16T06:41:17.318Z,46.88
2016-04-16T06:42:17.321Z,46.88
2016-04-16T06:43:17.324Z,46.97
2016-04-16T06:44:17.608Z,47.17
2016-04-16T06:45:17.704Z,46.95
2016-04-16T06:46:17.363Z,46.95
2016-04-16T06:47:17.365Z,47.17
2016-04-16T06:48:17.243Z,47.17
2016-04-16T06:49:17.527Z,47.17
2016-04-16T06:50:17.404Z,46.78
2016-04-16T06:51:17.407Z,46.97
2016-04-16T06:52:17.410Z,46.78
2016-04-16T06:53:17.398Z,46.69
2016-04-16T06:54:17.415Z,46.78
2016-04-16T06:55:17.418Z,46.97
2016-04-16T06:56:17.734Z,46.78
2016-04-16T06:57:17.595Z,46.88
2016-04-16T06:58:17.442Z,46.97
2016-04-16T06:59:17.461Z,46.97
2016-04-16T07:00:17.806Z,46.69
2016-04-16T07:01:17.481Z,46.69
2016-04-16T07:02:17.781Z,46.69
2016-04-16T07:03:17.533Z,46.69
2016-04-16T07:04:17.505Z,46.88
2016-04-16T07:05:17.508Z,46.69
2016-04-16T07:06:17.541Z,46.69
2016-04-16T07:07:17.778Z,46.69
2016-04-16T07:08:17.531Z,46.69
2016-04-16T07:09:17.533Z,46.69
2016-04-16T07:10:17.536Z,46.88
2016-04-16T07:11:17.538Z,46.69
2016-04-16T07:12:17.558Z,46.69
2016-04-16T07:13:17.561Z,46.88
2016-04-16T07:14:17.718Z,46.69
2016-04-16T07:15:17.582Z,46.4
2016-04-16T07:16:17.756Z,46.49
2016-04-16T07:17:17.587Z,46.59
2016-04-16T07:18:17.590Z,46.49
2016-04-16T07:19:17.607Z,46.3
2016-04-16T07:20:17.813Z,46.88
2016-04-16T07:21:17.472Z,46.78
2016-04-16T07:22:17.662Z,46.59
2016-04-16T07:23:17.665Z,46.69
2016-04-16T07:24:17.667Z,46.49
2016-04-16T07:25:17.655Z,46.49
2016-04-16T07:26:17.658Z,46.78
2016-04-16T07:27:17.676Z,46.59
2016-04-16T07:28:17.678Z,46.4
2016-04-16T07:29:17.681Z,46.4
2016-04-16T07:30:17.684Z,46.4
2016-04-16T07:31:17.703Z,46.49
2016-04-16T07:32:17.706Z,46.59
2016-04-16T07:33:17.708Z,46.3
2016-04-16T07:34:17.742Z,46.4
2016-04-16T07:35:17.728Z,46.49
2016-04-16T07:36:17.591Z,46.61
2016-04-16T07:37:17.750Z,46.3
2016-04-16T07:38:17.752Z,46.23
2016-04-16T07:39:17.755Z,46.33
2016-04-16T07:40:17.773Z,46.3
2016-04-16T07:41:17.776Z,46.51
2016-04-16T07:42:17.780Z,46.4
2016-04-16T07:43:17.781Z,46.49
2016-04-16T07:44:17.799Z,46.33
2016-04-16T07:45:17.802Z,46.33
2016-04-16T07:46:17.821Z,46.33
2016-04-16T07:47:17.824Z,46.2
2016-04-16T07:48:17.843Z,46.4
2016-04-16T07:49:17.845Z,46.2
2016-04-16T07:50:17.848Z,46.2
2016-04-16T07:51:17.850Z,46.49
2016-04-16T07:52:17.868Z,46.33
2016-04-16T07:53:17.871Z,46.51
2016-04-16T07:54:17.874Z,46.2
2016-04-16T07:55:17.892Z,46.4
2016-04-16T07:56:17.910Z,46.33
2016-04-16T07:57:17.898Z,46.23
2016-04-16T07:58:17.901Z,46.33
2016-04-16T07:59:17.917Z,46.13
2016-04-16T08:00:17.920Z,46.23
2016-04-16T08:01:17.924Z,46.23
2016-04-16T08:02:17.942Z,46.13
2016-04-16T08:03:17.944Z,46.23
2016-04-16T08:04:17.947Z,46.03
2016-04-16T08:05:17.966Z,46.03
2016-04-16T08:06:17.984Z,46.23
2016-04-16T08:07:17.986Z,46.23
2016-04-16T08:08:17.833Z,46.03
2016-04-16T08:09:17.992Z,46.13
2016-04-16T08:10:18.011Z,46.23
2016-04-16T08:11:18.013Z,46.23
2016-04-16T08:12:18.016Z,46.13
2016-04-16T08:13:18.018Z,46.33
2016-04-16T08:14:18.037Z,46.13
2016-04-16T08:15:18.040Z,46.13
2016-04-16T08:16:18.057Z,46.13
2016-04-16T08:17:18.066Z,46.03
2016-04-16T08:18:18.068Z,46.23
2016-04-16T08:19:18.071Z,46.03
2016-04-16T08:20:18.105Z,45.94
2016-04-16T08:21:18.092Z,46.03
2016-04-16T08:22:17.969Z,45.94
2016-04-16T08:23:18.098Z,45.94
2016-04-16T08:24:18.115Z,46.03
2016-04-16T08:25:18.118Z,45.94
2016-04-16T08:26:18.120Z,45.94
2016-04-16T08:27:18.139Z,45.94
2016-04-16T08:28:18.142Z,45.94
2016-04-16T08:29:18.160Z,45.94
2016-04-16T08:30:18.178Z,45.94
2016-04-16T08:31:18.166Z,45.84
2016-04-16T08:32:18.169Z,45.94
2016-04-16T08:33:18.186Z,45.84
2016-04-16T08:34:18.189Z,45.94
2016-04-16T08:35:18.223Z,45.84
2016-04-16T08:36:18.210Z,45.84
2016-04-16T08:37:18.213Z,45.75
2016-04-16T08:38:18.216Z,45.75
2016-04-16T08:39:18.233Z,45.84
2016-04-16T08:40:18.236Z,45.75
2016-04-16T08:41:18.255Z,45.65
2016-04-16T08:42:18.257Z,45.65
2016-04-16T08:43:18.260Z,45.67
2016-04-16T08:44:18.263Z,45.67
2016-04-16T08:45:18.282Z,45.65
2016-04-16T08:46:18.285Z,45.76
2016-04-16T08:47:18.302Z,45.76
2016-04-16T08:48:18.305Z,45.76
2016-04-16T08:49:18.307Z,45.76
2016-04-16T08:50:18.326Z,45.48
2016-04-16T08:51:18.329Z,45.48
2016-04-16T08:52:18.332Z,45.48
2016-04-16T08:53:18.350Z,45.57
2016-04-16T08:54:18.353Z,45.76
2016-04-16T08:55:18.356Z,45.76
2016-04-16T08:56:18.373Z,45.67
2016-04-16T08:57:18.376Z,45.48
2016-04-16T08:58:18.378Z,45.48
2016-04-16T08:59:18.397Z,45.57
2016-04-16T09:00:18.399Z,45.48
2016-04-16T09:01:18.403Z,45.38
2016-04-16T09:02:18.420Z,45.38
2016-04-16T09:03:18.423Z,45.28
2016-04-16T09:04:18.426Z,45.28
2016-04-16T09:05:18.444Z,45.09
2016-04-16T09:06:18.447Z,45.18
2016-04-16T09:07:18.450Z,45.18
2016-04-16T09:08:18.453Z,45.18
2016-04-16T09:09:18.486Z,45.09
2016-04-16T09:10:18.474Z,45.09
2016-04-16T09:11:18.491Z,45.28
2016-04-16T09:12:18.494Z,45.28
2016-04-16T09:13:18.497Z,45.18
2016-04-16T09:14:18.515Z,45.21
2016-04-16T09:15:18.518Z,45.18
2016-04-16T09:16:18.521Z,45.09
2016-04-16T09:17:18.540Z,45.18
2016-04-16T09:18:18.543Z,45.18
2016-04-16T09:19:18.544Z,45.09
2016-04-16T09:20:18.578Z,45.21
2016-04-16T09:21:18.565Z,45.18
2016-04-16T09:22:18.584Z,45.28
2016-04-16T09:23:18.586Z,45.09
2016-04-16T09:24:18.605Z,45.28
2016-04-16T09:25:18.592Z,45.11
2016-04-16T09:26:18.610Z,44.9
2016-04-16T09:27:18.628Z,45.11
2016-04-16T09:28:18.615Z,45.11
2016-04-16T09:29:18.634Z,45.01
2016-04-16T09:30:18.637Z,44.92
2016-04-16T09:31:18.656Z,45.01
2016-04-16T09:32:18.658Z,44.82
2016-04-16T09:33:18.661Z,45.11
2016-04-16T09:34:18.678Z,44.82
2016-04-16T09:35:18.681Z,44.92
2016-04-16T09:36:18.683Z,45.01
2016-04-16T09:37:18.702Z,45.01
2016-04-16T09:38:18.705Z,45.01
2016-04-16T09:39:18.708Z,45.01
2016-04-16T09:40:18.711Z,44.92
2016-04-16T09:41:18.729Z,45.01
2016-04-16T09:42:18.732Z,45.11
2016-04-16T09:43:18.749Z,45.01
2016-04-16T09:44:18.752Z,44.73
2016-04-16T09:45:18.754Z,44.63
2016-04-16T09:46:18.773Z,44.82
2016-04-16T09:47:18.776Z,44.82
2016-04-16T09:48:18.794Z,44.82
2016-04-16T09:49:18.796Z,44.92
2016-04-16T09:50:18.815Z,44.82
2016-04-16T09:51:18.818Z,44.82
2016-04-16T09:52:18.821Z,44.92
2016-04-16T09:53:18.840Z,44.92
2016-04-16T09:54:18.842Z,44.73
2016-04-16T09:55:18.845Z,44.92
2016-04-16T09:56:18.862Z,44.53
2016-04-16T09:57:18.865Z,44.92
2016-04-16T09:58:18.868Z,44.82
2016-04-16T09:59:18.886Z,44.82
2016-04-16T10:00:18.889Z,44.82
2016-04-16T10:01:18.891Z,44.82
2016-04-16T10:02:18.911Z,44.82
2016-04-16T10:03:18.914Z,44.73
2016-04-16T10:04:18.931Z,44.82
2016-04-16T10:05:18.933Z,44.92
2016-04-16T10:06:18.952Z,44.82
2016-04-16T10:07:18.939Z,44.63
2016-04-16T10:08:18.958Z,44.92
2016-04-16T10:09:18.961Z,44.82
2016-04-16T10:10:18.978Z,45.21
2016-04-16T10:11:18.981Z,45.11
2016-04-16T10:12:18.984Z,45.01
2016-04-16T10:13:19.002Z,45.11
2016-04-16T10:14:19.005Z,45.21
2016-04-16T10:15:19.008Z,45.11
2016-04-16T10:16:19.027Z,45.21
2016-04-16T10:17:19.029Z,45.21
2016-04-16T10:18:19.047Z,45.21
2016-04-16T10:19:19.049Z,45.31
2016-04-16T10:20:19.052Z,45.21
2016-04-16T10:21:19.054Z,45.21
2016-04-16T10:22:19.073Z,45.21
2016-04-16T10:23:19.076Z,45.01
2016-04-16T10:24:19.095Z,45.11
2016-04-16T10:25:19.098Z,45.21
2016-04-16T10:26:19.100Z,45.11
2016-04-16T10:27:19.118Z,45.11
2016-04-16T10:28:19.136Z,45.21
2016-04-16T10:29:19.139Z,45.01
2016-04-16T10:30:19.141Z,45.01
2016-04-16T10:31:19.144Z,45.11
2016-04-16T10:32:19.162Z,45.01
2016-04-16T10:33:19.165Z,45.01
2016-04-16T10:34:19.167Z,45.11
2016-04-16T10:35:19.186Z,45.01
2016-04-16T10:36:19.189Z,45.01
2016-04-16T10:37:19.208Z,45.11
2016-04-16T10:38:19.211Z,44.92
2016-04-16T10:39:19.213Z,45.01
2016-04-16T10:40:19.216Z,45.11
2016-04-16T10:41:19.233Z,45.21
2016-04-16T10:42:19.236Z,45.01
2016-04-16T10:43:19.255Z,45.11
2016-04-16T10:44:19.258Z,45.11
2016-04-16T10:45:19.276Z,45.21
2016-04-16T10:46:19.263Z,45.21
2016-04-16T10:47:19.282Z,44.92
2016-04-16T10:48:19.299Z,45.01
2016-04-16T10:49:19.318Z,45.11
2016-04-16T10:50:19.304Z,45.01
2016-04-16T10:51:19.307Z,45.01
2016-04-16T10:52:19.325Z,44.92
2016-04-16T10:53:19.328Z,45.11
2016-04-16T10:54:19.331Z,45.11
2016-04-16T10:55:19.349Z,45.11
2016-04-16T10:56:19.351Z,45.11
2016-04-16T10:57:19.370Z,45.21
2016-04-16T10:58:19.373Z,45.21
2016-04-16T10:59:19.376Z,45.21
2016-04-16T11:00:19.379Z,45.21
2016-04-16T11:01:19.398Z,45.31
2016-04-16T11:02:19.400Z,45.31
2016-04-16T11:03:19.418Z,45.21
2016-04-16T11:04:19.420Z,45.21
2016-04-16T11:05:19.423Z,45.4
2016-04-16T11:06:19.441Z,45.11
2016-04-16T11:07:19.444Z,45.4
2016-04-16T11:08:19.447Z,45.4
2016-04-16T11:09:19.450Z,45.4
2016-04-16T11:10:19.469Z,45.31
2016-04-16T11:11:19.486Z,45.21
2016-04-16T11:12:19.489Z,45.21
2016-04-16T11:13:19.491Z,45.31
2016-04-16T11:14:19.510Z,45.21
2016-04-16T11:15:19.512Z,45.4
2016-04-16T11:16:19.546Z,45.4
2016-04-16T11:17:19.533Z,45.4
2016-04-16T11:18:19.536Z,45.4
2016-04-16T11:19:19.554Z,45.4
2016-04-16T11:20:19.557Z,45.5
2016-04-16T11:21:19.560Z,45.4
2016-04-16T11:22:19.594Z,45.4
2016-04-16T11:23:19.581Z,45.5
2016-04-16T11:24:19.584Z,45.4
2016-04-16T11:25:19.602Z,45.4
2016-04-16T11:26:19.604Z,45.31
2016-04-16T11:27:19.607Z,45.4
2016-04-16T11:28:19.626Z,45.4
2016-04-16T11:29:19.628Z,45.31
2016-04-16T11:30:19.631Z,45.31
2016-04-16T11:31:19.649Z,45.31
2016-04-16T11:32:19.653Z,45.4
2016-04-16T11:33:19.670Z,45.31
2016-04-16T11:34:19.673Z,45.31
2016-04-16T11:35:19.692Z,45.4
2016-04-16T11:36:19.678Z,45.4
2016-04-16T11:37:19.697Z,45.31
2016-04-16T11:38:19.700Z,45.5
2016-04-16T11:39:19.702Z,45.4
2016-04-16T11:40:19.720Z,45.4
2016-04-16T11:41:19.723Z,45.31
2016-04-16T11:42:19.741Z,45.4
2016-04-16T11:43:19.760Z,45.4
2016-04-16T11:44:19.763Z,45.4
2016-04-16T11:45:19.765Z,45.11
2016-04-16T11:46:19.768Z,45.4
2016-04-16T11:47:19.771Z,45.4
2016-04-16T11:48:19.788Z,45.21
2016-04-16T11:49:19.791Z,45.4
2016-04-16T11:50:19.794Z,45.21
2016-04-16T11:51:19.856Z,45.4
2016-04-16T11:52:19.919Z,45.31
2016-04-16T11:53:19.950Z,45.11
2016-04-16T11:54:20.012Z,45.4
2016-04-16T11:55:20.059Z,45.31
2016-04-16T11:56:20.094Z,45.4
2016-04-16T11:57:20.112Z,45.21
2016-04-16T11:58:20.130Z,45.21
2016-04-16T11:59:20.165Z,45.11
2016-04-16T12:00:20.198Z,45.11
2016-04-16T12:01:20.206Z,45.31
2016-04-16T12:02:20.216Z,45.21
2016-04-16T12:03:20.224Z,45.23
2016-04-16T12:04:20.248Z,45.04
2016-04-16T12:05:20.257Z,45.04
2016-04-16T12:06:20.261Z,44.84
2016-04-16T12:07:20.297Z,44.65
2016-04-16T12:08:20.303Z,44.75
2016-04-16T12:09:20.292Z,44.75
2016-04-16T12:10:20.313Z,44.65
2016-04-16T12:11:20.316Z,44.84
2016-04-16T12:12:20.320Z,44.26
2016-04-16T12:13:20.339Z,44.56
2016-04-16T12:14:20.342Z,44.38
2016-04-16T12:15:20.346Z,44.36
2016-04-16T12:16:20.365Z,44.56
2016-04-16T12:17:20.383Z,44.96
2016-04-16T12:18:20.387Z,44.94
2016-04-16T12:19:20.389Z,45.14
2016-04-16T12:20:20.409Z,45.04
2016-04-16T12:21:20.411Z,45.04
2016-04-16T12:22:20.554Z,45.14
2016-04-16T12:23:20.416Z,45.23
2016-04-16T12:24:20.434Z,45.14
2016-04-16T12:25:20.437Z,45.33
2016-04-16T12:26:20.456Z,45.14
2016-04-16T12:27:20.458Z,45.21
2016-04-16T12:28:20.461Z,45.14
2016-04-16T12:29:20.480Z,45.14
2016-04-16T12:30:20.482Z,45.31
2016-04-16T12:31:20.500Z,45.14
2016-04-16T12:32:20.503Z,45.23
2016-04-16T12:33:20.569Z,45.4
2016-04-16T12:34:20.524Z,45.33
2016-04-16T12:35:20.526Z,45.42
2016-04-16T12:36:20.546Z,45.52
2016-04-16T12:37:20.626Z,45.33
2016-04-16T12:38:20.566Z,45.42
2016-04-16T12:39:20.554Z,45.42
2016-04-16T12:40:20.571Z,45.42
2016-04-16T12:41:20.574Z,45.42
2016-04-16T12:42:20.608Z,45.4
2016-04-16T12:43:20.595Z,45.5
2016-04-16T12:44:20.598Z,45.42
2016-04-16T12:45:20.616Z,45.4
2016-04-16T12:46:20.618Z,45.42
2016-04-16T12:47:20.621Z,45.52
2016-04-16T12:48:20.623Z,45.5
2016-04-16T12:49:20.643Z,45.59
2016-04-16T12:50:20.645Z,45.59
2016-04-16T12:51:20.648Z,45.59
2016-04-16T12:52:20.667Z,45.5
2016-04-16T12:53:20.669Z,45.52
2016-04-16T12:54:20.687Z,45.5